sensor_id;sensor_type;location;lat;lon;timestamp;P1;durP1;ratioP1;P2;durP2;ratioP2
50213;SDS011;36103;54.176;12.070;2023-03-23T00:00:23;4.60;;;2.33;;
50213;SDS011;36103;54.176;12.070;2023-03-23T00:01:24;3.97;;;2.07;;
50213;SDS011;36103;54.176;12.070;2023-03-23T00:02:27;3.23;;;2.20;;
50213;SDS011;36103;54.176;12.070;2023-03-23T00:03:29;3.43;;;2.23;;
50213;SDS011;36103;54.176;12.070;2023-03-23T00:04:31;4.63;;;2.00;;
50213;SDS011;36103;54.176;12.070;2023-03-23T00:05:32;3.27;;;2.07;;
50213;SDS011;36103;54.176;12.070;2023-03-23T00:06:36;3.03;;;2.20;;
50213;SDS011;36103;54.176;12.070;2023-03-23T00:07:38;2.60;;;1.83;;
50213;SDS011;36103;54.176;12.070;2023-03-23T00:08:46;5.60;;;2.50;;
50213;SDS011;36103;54.176;12.070;2023-03-23T00:09:47;3.27;;;2.27;;
50213;SDS011;36103;54.176;12.070;2023-03-23T00:10:52;2.83;;;1.97;;
50213;SDS011;36103;54.176;12.070;2023-03-23T00:11:56;2.57;;;1.93;;
50213;SDS011;36103;54.176;12.070;2023-03-23T00:13:05;3.20;;;2.20;;
50213;SDS011;36103;54.176;12.070;2023-03-23T00:14:06;2.93;;;2.07;;
50213;SDS011;36103;54.176;12.070;2023-03-23T00:15:12;3.37;;;2.43;;
50213;SDS011;36103;54.176;12.070;2023-03-23T00:16:17;3.67;;;2.27;;
50213;SDS011;36103;54.176;12.070;2023-03-23T00:17:19;2.67;;;1.63;;
50213;SDS011;36103;54.176;12.070;2023-03-23T00:18:19;3.23;;;2.13;;
50213;SDS011;36103;54.176;12.070;2023-03-23T00:19:24;2.60;;;1.93;;
50213;SDS011;36103;54.176;12.070;2023-03-23T00:20:25;3.17;;;1.93;;
50213;SDS011;36103;54.176;12.070;2023-03-23T00:21:30;3.50;;;1.97;;
50213;SDS011;36103;54.176;12.070;2023-03-23T00:22:34;2.53;;;1.93;;
50213;SDS011;36103;54.176;12.070;2023-03-23T00:23:39;2.27;;;1.80;;
50213;SDS011;36103;54.176;12.070;2023-03-23T00:24:40;3.30;;;2.10;;
50213;SDS011;36103;54.176;12.070;2023-03-23T00:25:42;3.90;;;2.07;;
50213;SDS011;36103;54.176;12.070;2023-03-23T00:26:43;4.00;;;2.17;;
50213;SDS011;36103;54.176;12.070;2023-03-23T00:27:45;3.80;;;2.23;;
50213;SDS011;36103;54.176;12.070;2023-03-23T00:28:46;3.00;;;2.17;;
50213;SDS011;36103;54.176;12.070;2023-03-23T00:29:47;4.90;;;2.10;;
50213;SDS011;36103;54.176;12.070;2023-03-23T00:30:48;4.10;;;2.37;;
50213;SDS011;36103;54.176;12.070;2023-03-23T00:31:51;2.93;;;2.27;;
50213;SDS011;36103;54.176;12.070;2023-03-23T00:32:53;3.57;;;2.13;;
50213;SDS011;36103;54.176;12.070;2023-03-23T00:33:53;3.33;;;1.90;;
50213;SDS011;36103;54.176;12.070;2023-03-23T00:34:55;2.70;;;2.10;;
50213;SDS011;36103;54.176;12.070;2023-03-23T00:35:56;3.63;;;2.10;;
50213;SDS011;36103;54.176;12.070;2023-03-23T00:36:58;3.83;;;1.93;;
50213;SDS011;36103;54.176;12.070;2023-03-23T00:37:58;2.43;;;1.80;;
50213;SDS011;36103;54.176;12.070;2023-03-23T00:39:02;4.30;;;2.50;;
50213;SDS011;36103;54.176;12.070;2023-03-23T00:40:03;4.07;;;2.10;;
50213;SDS011;36103;54.176;12.070;2023-03-23T00:41:11;3.03;;;2.00;;
50213;SDS011;36103;54.176;12.070;2023-03-23T00:42:13;2.70;;;2.10;;
50213;SDS011;36103;54.176;12.070;2023-03-23T00:43:15;2.80;;;1.83;;
50213;SDS011;36103;54.176;12.070;2023-03-23T00:44:16;2.43;;;2.00;;
50213;SDS011;36103;54.176;12.070;2023-03-23T00:45:19;3.00;;;2.00;;
50213;SDS011;36103;54.176;12.070;2023-03-23T00:46:19;2.20;;;1.70;;
50213;SDS011;36103;54.176;12.070;2023-03-23T00:47:21;2.60;;;1.80;;
50213;SDS011;36103;54.176;12.070;2023-03-23T00:48:23;2.77;;;1.83;;
50213;SDS011;36103;54.176;12.070;2023-03-23T00:49:26;3.30;;;1.83;;
50213;SDS011;36103;54.176;12.070;2023-03-23T00:50:28;2.27;;;1.60;;
50213;SDS011;36103;54.176;12.070;2023-03-23T00:51:29;2.87;;;2.00;;
50213;SDS011;36103;54.176;12.070;2023-03-23T00:52:30;2.60;;;1.60;;
50213;SDS011;36103;54.176;12.070;2023-03-23T00:53:31;3.43;;;2.23;;
50213;SDS011;36103;54.176;12.070;2023-03-23T00:54:33;3.07;;;1.87;;
50213;SDS011;36103;54.176;12.070;2023-03-23T00:55:36;3.40;;;1.90;;
50213;SDS011;36103;54.176;12.070;2023-03-23T00:56:37;2.70;;;2.10;;
50213;SDS011;36103;54.176;12.070;2023-03-23T00:57:40;3.20;;;1.83;;
50213;SDS011;36103;54.176;12.070;2023-03-23T00:58:40;2.30;;;1.93;;
50213;SDS011;36103;54.176;12.070;2023-03-23T00:59:42;3.47;;;1.93;;
50213;SDS011;36103;54.176;12.070;2023-03-23T01:00:42;3.57;;;2.33;;
50213;SDS011;36103;54.176;12.070;2023-03-23T01:01:44;2.87;;;2.00;;
50213;SDS011;36103;54.176;12.070;2023-03-23T01:02:45;3.67;;;1.83;;
50213;SDS011;36103;54.176;12.070;2023-03-23T01:03:46;2.03;;;1.70;;
50213;SDS011;36103;54.176;12.070;2023-03-23T01:04:49;2.57;;;1.80;;
50213;SDS011;36103;54.176;12.070;2023-03-23T01:05:52;2.93;;;2.00;;
50213;SDS011;36103;54.176;12.070;2023-03-23T01:06:54;3.50;;;2.17;;
50213;SDS011;36103;54.176;12.070;2023-03-23T01:07:56;3.63;;;2.13;;
50213;SDS011;36103;54.176;12.070;2023-03-23T01:08:58;3.40;;;1.97;;
50213;SDS011;36103;54.176;12.070;2023-03-23T01:10:00;3.47;;;1.93;;
50213;SDS011;36103;54.176;12.070;2023-03-23T01:11:03;3.10;;;2.10;;
50213;SDS011;36103;54.176;12.070;2023-03-23T01:12:05;3.70;;;2.27;;
50213;SDS011;36103;54.176;12.070;2023-03-23T01:13:07;3.87;;;2.17;;
50213;SDS011;36103;54.176;12.070;2023-03-23T01:14:08;2.93;;;1.93;;
50213;SDS011;36103;54.176;12.070;2023-03-23T01:15:13;4.07;;;1.97;;
50213;SDS011;36103;54.176;12.070;2023-03-23T01:16:14;2.40;;;1.93;;
50213;SDS011;36103;54.176;12.070;2023-03-23T01:17:16;2.03;;;1.80;;
50213;SDS011;36103;54.176;12.070;2023-03-23T01:18:16;2.93;;;1.73;;
50213;SDS011;36103;54.176;12.070;2023-03-23T01:19:18;3.07;;;1.80;;
50213;SDS011;36103;54.176;12.070;2023-03-23T01:20:18;3.00;;;1.97;;
50213;SDS011;36103;54.176;12.070;2023-03-23T01:21:20;3.23;;;1.80;;
50213;SDS011;36103;54.176;12.070;2023-03-23T01:22:21;2.73;;;1.87;;
50213;SDS011;36103;54.176;12.070;2023-03-23T01:23:22;1.87;;;1.70;;
50213;SDS011;36103;54.176;12.070;2023-03-23T01:24:23;2.63;;;1.60;;
50213;SDS011;36103;54.176;12.070;2023-03-23T01:25:26;3.67;;;2.13;;
50213;SDS011;36103;54.176;12.070;2023-03-23T01:26:28;2.43;;;1.60;;
50213;SDS011;36103;54.176;12.070;2023-03-23T01:27:30;4.20;;;2.10;;
50213;SDS011;36103;54.176;12.070;2023-03-23T01:28:30;3.00;;;1.87;;
50213;SDS011;36103;54.176;12.070;2023-03-23T01:29:32;2.30;;;1.57;;
50213;SDS011;36103;54.176;12.070;2023-03-23T01:30:32;3.13;;;1.70;;
50213;SDS011;36103;54.176;12.070;2023-03-23T01:31:34;2.50;;;2.00;;
50213;SDS011;36103;54.176;12.070;2023-03-23T01:32:36;3.23;;;1.80;;
50213;SDS011;36103;54.176;12.070;2023-03-23T01:33:39;2.47;;;1.60;;
50213;SDS011;36103;54.176;12.070;2023-03-23T01:34:40;2.50;;;2.00;;
50213;SDS011;36103;54.176;12.070;2023-03-23T01:35:42;2.37;;;1.60;;
50213;SDS011;36103;54.176;12.070;2023-03-23T01:36:42;3.07;;;1.73;;
50213;SDS011;36103;54.176;12.070;2023-03-23T01:37:44;3.10;;;1.50;;
50213;SDS011;36103;54.176;12.070;2023-03-23T01:38:45;1.50;;;1.40;;
50213;SDS011;36103;54.176;12.070;2023-03-23T01:39:47;2.00;;;1.80;;
50213;SDS011;36103;54.176;12.070;2023-03-23T01:40:49;2.47;;;1.33;;
50213;SDS011;36103;54.176;12.070;2023-03-23T01:41:51;3.97;;;1.40;;
50213;SDS011;36103;54.176;12.070;2023-03-23T01:42:55;2.67;;;1.77;;
50213;SDS011;36103;54.176;12.070;2023-03-23T01:43:57;4.93;;;1.80;;
50213;SDS011;36103;54.176;12.070;2023-03-23T01:46:31;2.07;;;1.60;;
50213;SDS011;36103;54.176;12.070;2023-03-23T01:47:33;2.50;;;1.87;;
50213;SDS011;36103;54.176;12.070;2023-03-23T01:48:35;2.03;;;1.70;;
50213;SDS011;36103;54.176;12.070;2023-03-23T01:49:37;2.47;;;1.70;;
50213;SDS011;36103;54.176;12.070;2023-03-23T01:50:47;3.73;;;1.70;;
50213;SDS011;36103;54.176;12.070;2023-03-23T01:51:51;1.83;;;1.53;;
50213;SDS011;36103;54.176;12.070;2023-03-23T01:52:56;3.10;;;1.67;;
50213;SDS011;36103;54.176;12.070;2023-03-23T01:53:59;2.10;;;1.40;;
50213;SDS011;36103;54.176;12.070;2023-03-23T01:55:03;2.33;;;1.47;;
50213;SDS011;36103;54.176;12.070;2023-03-23T01:56:06;2.53;;;1.73;;
50213;SDS011;36103;54.176;12.070;2023-03-23T01:57:09;3.30;;;1.30;;
50213;SDS011;36103;54.176;12.070;2023-03-23T01:58:11;1.67;;;1.57;;
50213;SDS011;36103;54.176;12.070;2023-03-23T01:59:13;2.23;;;1.63;;
50213;SDS011;36103;54.176;12.070;2023-03-23T02:00:18;2.60;;;1.60;;
50213;SDS011;36103;54.176;12.070;2023-03-23T02:01:24;2.37;;;1.93;;
50213;SDS011;36103;54.176;12.070;2023-03-23T02:02:25;2.93;;;1.60;;
50213;SDS011;36103;54.176;12.070;2023-03-23T02:03:29;2.37;;;1.60;;
50213;SDS011;36103;54.176;12.070;2023-03-23T02:04:33;1.70;;;1.30;;
50213;SDS011;36103;54.176;12.070;2023-03-23T02:05:36;2.97;;;1.70;;
50213;SDS011;36103;54.176;12.070;2023-03-23T02:06:47;2.00;;;1.60;;
50213;SDS011;36103;54.176;12.070;2023-03-23T02:07:52;1.97;;;1.50;;
50213;SDS011;36103;54.176;12.070;2023-03-23T02:08:55;3.47;;;1.90;;
50213;SDS011;36103;54.176;12.070;2023-03-23T02:09:56;2.30;;;1.70;;
50213;SDS011;36103;54.176;12.070;2023-03-23T02:10:58;2.37;;;1.40;;
50213;SDS011;36103;54.176;12.070;2023-03-23T02:12:02;2.50;;;1.70;;
50213;SDS011;36103;54.176;12.070;2023-03-23T02:13:04;2.20;;;1.53;;
50213;SDS011;36103;54.176;12.070;2023-03-23T02:14:06;1.80;;;1.70;;
50213;SDS011;36103;54.176;12.070;2023-03-23T02:15:08;2.10;;;1.50;;
50213;SDS011;36103;54.176;12.070;2023-03-23T02:16:15;1.87;;;1.40;;
50213;SDS011;36103;54.176;12.070;2023-03-23T02:17:22;2.50;;;1.67;;
50213;SDS011;36103;54.176;12.070;2023-03-23T02:18:32;2.37;;;1.53;;
50213;SDS011;36103;54.176;12.070;2023-03-23T02:19:46;1.80;;;1.40;;
50213;SDS011;36103;54.176;12.070;2023-03-23T02:21:13;1.43;;;1.20;;
50213;SDS011;36103;54.176;12.070;2023-03-23T02:22:34;2.40;;;1.80;;
50213;SDS011;36103;54.176;12.070;2023-03-23T02:23:48;2.90;;;1.30;;
50213;SDS011;36103;54.176;12.070;2023-03-23T02:24:59;3.27;;;1.43;;
50213;SDS011;36103;54.176;12.070;2023-03-23T02:26:26;2.83;;;1.53;;
50213;SDS011;36103;54.176;12.070;2023-03-23T02:27:50;1.80;;;1.40;;
50213;SDS011;36103;54.176;12.070;2023-03-23T02:30:37;3.87;;;1.50;;
50213;SDS011;36103;54.176;12.070;2023-03-23T02:31:47;1.60;;;1.47;;
50213;SDS011;36103;54.176;12.070;2023-03-23T02:34:30;2.47;;;1.47;;
50213;SDS011;36103;54.176;12.070;2023-03-23T02:35:34;2.30;;;1.73;;
50213;SDS011;36103;54.176;12.070;2023-03-23T02:36:37;1.97;;;1.50;;
50213;SDS011;36103;54.176;12.070;2023-03-23T02:37:45;2.40;;;1.60;;
50213;SDS011;36103;54.176;12.070;2023-03-23T02:38:49;1.70;;;1.20;;
50213;SDS011;36103;54.176;12.070;2023-03-23T02:39:56;2.13;;;1.60;;
50213;SDS011;36103;54.176;12.070;2023-03-23T02:40:59;2.70;;;1.53;;
50213;SDS011;36103;54.176;12.070;2023-03-23T02:42:04;2.10;;;1.30;;
50213;SDS011;36103;54.176;12.070;2023-03-23T02:43:06;2.27;;;1.50;;
50213;SDS011;36103;54.176;12.070;2023-03-23T02:44:09;2.67;;;1.47;;
50213;SDS011;36103;54.176;12.070;2023-03-23T02:45:10;2.00;;;1.40;;
50213;SDS011;36103;54.176;12.070;2023-03-23T02:46:12;1.90;;;1.23;;
50213;SDS011;36103;54.176;12.070;2023-03-23T02:47:14;1.90;;;1.30;;
50213;SDS011;36103;54.176;12.070;2023-03-23T02:48:18;1.77;;;1.17;;
50213;SDS011;36103;54.176;12.070;2023-03-23T02:49:22;1.67;;;1.30;;
50213;SDS011;36103;54.176;12.070;2023-03-23T02:50:25;1.70;;;1.20;;
50213;SDS011;36103;54.176;12.070;2023-03-23T02:51:27;2.53;;;1.50;;
50213;SDS011;36103;54.176;12.070;2023-03-23T02:52:31;1.50;;;1.20;;
50213;SDS011;36103;54.176;12.070;2023-03-23T02:53:33;1.50;;;1.30;;
50213;SDS011;36103;54.176;12.070;2023-03-23T02:54:36;1.20;;;1.10;;
50213;SDS011;36103;54.176;12.070;2023-03-23T02:55:37;1.73;;;1.23;;
50213;SDS011;36103;54.176;12.070;2023-03-23T02:56:42;1.97;;;1.30;;
50213;SDS011;36103;54.176;12.070;2023-03-23T02:57:51;1.87;;;1.30;;
50213;SDS011;36103;54.176;12.070;2023-03-23T02:58:53;2.60;;;1.40;;
50213;SDS011;36103;54.176;12.070;2023-03-23T02:59:54;1.67;;;1.20;;
50213;SDS011;36103;54.176;12.070;2023-03-23T03:00:56;1.80;;;1.60;;
50213;SDS011;36103;54.176;12.070;2023-03-23T03:02:02;1.80;;;1.40;;
50213;SDS011;36103;54.176;12.070;2023-03-23T03:03:07;2.80;;;1.40;;
50213;SDS011;36103;54.176;12.070;2023-03-23T03:04:13;2.60;;;1.37;;
50213;SDS011;36103;54.176;12.070;2023-03-23T03:05:18;2.00;;;1.23;;
50213;SDS011;36103;54.176;12.070;2023-03-23T03:06:25;1.30;;;1.10;;
50213;SDS011;36103;54.176;12.070;2023-03-23T03:07:33;2.23;;;1.50;;
50213;SDS011;36103;54.176;12.070;2023-03-23T03:08:41;1.47;;;1.17;;
50213;SDS011;36103;54.176;12.070;2023-03-23T03:09:46;2.07;;;1.37;;
50213;SDS011;36103;54.176;12.070;2023-03-23T03:10:51;1.40;;;1.30;;
50213;SDS011;36103;54.176;12.070;2023-03-23T03:12:00;2.57;;;1.70;;
50213;SDS011;36103;54.176;12.070;2023-03-23T03:13:08;2.90;;;1.60;;
50213;SDS011;36103;54.176;12.070;2023-03-23T03:14:13;2.20;;;1.60;;
50213;SDS011;36103;54.176;12.070;2023-03-23T03:15:22;2.37;;;1.50;;
50213;SDS011;36103;54.176;12.070;2023-03-23T03:16:28;2.13;;;1.33;;
50213;SDS011;36103;54.176;12.070;2023-03-23T03:17:32;1.87;;;1.43;;
50213;SDS011;36103;54.176;12.070;2023-03-23T03:18:37;2.80;;;1.67;;
50213;SDS011;36103;54.176;12.070;2023-03-23T03:19:42;1.63;;;1.40;;
50213;SDS011;36103;54.176;12.070;2023-03-23T03:20:47;1.27;;;1.17;;
50213;SDS011;36103;54.176;12.070;2023-03-23T03:21:52;2.50;;;1.40;;
50213;SDS011;36103;54.176;12.070;2023-03-23T03:22:59;1.70;;;1.20;;
50213;SDS011;36103;54.176;12.070;2023-03-23T03:24:02;1.80;;;1.50;;
50213;SDS011;36103;54.176;12.070;2023-03-23T03:25:04;2.00;;;1.57;;
50213;SDS011;36103;54.176;12.070;2023-03-23T03:26:07;1.50;;;1.30;;
50213;SDS011;36103;54.176;12.070;2023-03-23T03:27:18;2.57;;;1.40;;
50213;SDS011;36103;54.176;12.070;2023-03-23T03:28:25;3.43;;;1.30;;
50213;SDS011;36103;54.176;12.070;2023-03-23T03:29:28;1.73;;;1.33;;
50213;SDS011;36103;54.176;12.070;2023-03-23T03:30:32;1.47;;;1.20;;
50213;SDS011;36103;54.176;12.070;2023-03-23T03:31:36;2.47;;;1.20;;
50213;SDS011;36103;54.176;12.070;2023-03-23T03:32:40;1.43;;;1.20;;
50213;SDS011;36103;54.176;12.070;2023-03-23T03:33:44;1.47;;;1.30;;
50213;SDS011;36103;54.176;12.070;2023-03-23T03:34:46;1.73;;;1.17;;
50213;SDS011;36103;54.176;12.070;2023-03-23T03:35:49;1.53;;;1.10;;
50213;SDS011;36103;54.176;12.070;2023-03-23T03:36:51;1.40;;;1.30;;
50213;SDS011;36103;54.176;12.070;2023-03-23T03:37:53;1.40;;;1.23;;
50213;SDS011;36103;54.176;12.070;2023-03-23T03:38:54;1.67;;;1.13;;
50213;SDS011;36103;54.176;12.070;2023-03-23T03:39:57;2.57;;;1.37;;
50213;SDS011;36103;54.176;12.070;2023-03-23T03:40:59;1.63;;;1.27;;
50213;SDS011;36103;54.176;12.070;2023-03-23T03:42:00;2.30;;;1.40;;
50213;SDS011;36103;54.176;12.070;2023-03-23T03:43:02;1.23;;;0.97;;
50213;SDS011;36103;54.176;12.070;2023-03-23T03:44:03;1.37;;;1.17;;
50213;SDS011;36103;54.176;12.070;2023-03-23T03:45:06;1.77;;;1.40;;
50213;SDS011;36103;54.176;12.070;2023-03-23T03:46:07;1.47;;;1.30;;
50213;SDS011;36103;54.176;12.070;2023-03-23T03:47:09;1.13;;;1.03;;
50213;SDS011;36103;54.176;12.070;2023-03-23T03:48:11;1.23;;;1.13;;
50213;SDS011;36103;54.176;12.070;2023-03-23T03:49:13;1.70;;;1.20;;
50213;SDS011;36103;54.176;12.070;2023-03-23T03:50:15;1.37;;;1.17;;
50213;SDS011;36103;54.176;12.070;2023-03-23T03:51:18;3.30;;;1.50;;
50213;SDS011;36103;54.176;12.070;2023-03-23T03:52:23;1.70;;;1.30;;
50213;SDS011;36103;54.176;12.070;2023-03-23T03:53:24;1.77;;;1.30;;
50213;SDS011;36103;54.176;12.070;2023-03-23T03:54:25;1.73;;;1.33;;
50213;SDS011;36103;54.176;12.070;2023-03-23T03:55:26;1.70;;;1.23;;
50213;SDS011;36103;54.176;12.070;2023-03-23T03:56:28;1.30;;;1.20;;
50213;SDS011;36103;54.176;12.070;2023-03-23T03:57:45;1.60;;;1.50;;
50213;SDS011;36103;54.176;12.070;2023-03-23T03:59:18;1.40;;;1.27;;
50213;SDS011;36103;54.176;12.070;2023-03-23T04:00:34;1.93;;;1.40;;
50213;SDS011;36103;54.176;12.070;2023-03-23T04:01:36;2.03;;;1.27;;
50213;SDS011;36103;54.176;12.070;2023-03-23T04:02:37;1.60;;;1.10;;
50213;SDS011;36103;54.176;12.070;2023-03-23T04:03:38;1.57;;;1.20;;
50213;SDS011;36103;54.176;12.070;2023-03-23T04:04:45;1.63;;;1.17;;
50213;SDS011;36103;54.176;12.070;2023-03-23T04:05:47;1.30;;;1.10;;
50213;SDS011;36103;54.176;12.070;2023-03-23T04:06:49;1.70;;;1.30;;
50213;SDS011;36103;54.176;12.070;2023-03-23T04:07:50;1.20;;;1.10;;
50213;SDS011;36103;54.176;12.070;2023-03-23T04:08:53;2.53;;;1.37;;
50213;SDS011;36103;54.176;12.070;2023-03-23T04:09:55;2.93;;;1.50;;
50213;SDS011;36103;54.176;12.070;2023-03-23T04:10:55;1.30;;;1.10;;
50213;SDS011;36103;54.176;12.070;2023-03-23T04:11:58;0.93;;;0.93;;
50213;SDS011;36103;54.176;12.070;2023-03-23T04:13:18;3.10;;;1.53;;
50213;SDS011;36103;54.176;12.070;2023-03-23T04:14:34;2.20;;;1.40;;
50213;SDS011;36103;54.176;12.070;2023-03-23T04:15:35;1.87;;;1.27;;
50213;SDS011;36103;54.176;12.070;2023-03-23T04:16:36;1.50;;;1.30;;
50213;SDS011;36103;54.176;12.070;2023-03-23T04:17:37;1.90;;;1.10;;
50213;SDS011;36103;54.176;12.070;2023-03-23T04:18:41;1.57;;;1.20;;
50213;SDS011;36103;54.176;12.070;2023-03-23T04:19:42;2.70;;;1.30;;
50213;SDS011;36103;54.176;12.070;2023-03-23T04:20:45;1.73;;;1.17;;
50213;SDS011;36103;54.176;12.070;2023-03-23T04:21:49;1.27;;;1.10;;
50213;SDS011;36103;54.176;12.070;2023-03-23T04:22:52;2.37;;;1.40;;
50213;SDS011;36103;54.176;12.070;2023-03-23T04:23:55;1.30;;;1.20;;
50213;SDS011;36103;54.176;12.070;2023-03-23T04:24:59;1.90;;;1.10;;
50213;SDS011;36103;54.176;12.070;2023-03-23T04:26:03;1.93;;;1.30;;
50213;SDS011;36103;54.176;12.070;2023-03-23T04:27:12;1.00;;;1.00;;
50213;SDS011;36103;54.176;12.070;2023-03-23T04:28:14;1.40;;;1.17;;
50213;SDS011;36103;54.176;12.070;2023-03-23T04:29:30;2.00;;;1.40;;
50213;SDS011;36103;54.176;12.070;2023-03-23T04:30:52;2.13;;;1.30;;
50213;SDS011;36103;54.176;12.070;2023-03-23T04:31:54;2.87;;;1.10;;
50213;SDS011;36103;54.176;12.070;2023-03-23T04:33:11;1.60;;;1.50;;
50213;SDS011;36103;54.176;12.070;2023-03-23T04:34:16;1.10;;;0.90;;
50213;SDS011;36103;54.176;12.070;2023-03-23T04:35:21;1.40;;;1.30;;
50213;SDS011;36103;54.176;12.070;2023-03-23T04:36:33;1.30;;;1.20;;
50213;SDS011;36103;54.176;12.070;2023-03-23T04:37:38;1.30;;;1.20;;
50213;SDS011;36103;54.176;12.070;2023-03-23T04:38:41;1.63;;;1.20;;
50213;SDS011;36103;54.176;12.070;2023-03-23T04:39:49;1.17;;;1.00;;
50213;SDS011;36103;54.176;12.070;2023-03-23T04:41:00;1.20;;;1.10;;
50213;SDS011;36103;54.176;12.070;2023-03-23T04:42:25;1.73;;;1.53;;
50213;SDS011;36103;54.176;12.070;2023-03-23T04:43:50;1.97;;;1.10;;
50213;SDS011;36103;54.176;12.070;2023-03-23T04:45:06;1.37;;;1.03;;
50213;SDS011;36103;54.176;12.070;2023-03-23T04:46:11;2.13;;;1.30;;
50213;SDS011;36103;54.176;12.070;2023-03-23T04:47:18;1.37;;;1.20;;
50213;SDS011;36103;54.176;12.070;2023-03-23T04:48:27;2.30;;;1.20;;
50213;SDS011;36103;54.176;12.070;2023-03-23T04:49:42;1.70;;;1.20;;
50213;SDS011;36103;54.176;12.070;2023-03-23T04:50:50;2.10;;;1.43;;
50213;SDS011;36103;54.176;12.070;2023-03-23T04:51:57;1.43;;;1.30;;
50213;SDS011;36103;54.176;12.070;2023-03-23T04:53:18;1.57;;;1.10;;
50213;SDS011;36103;54.176;12.070;2023-03-23T04:54:20;1.30;;;1.10;;
50213;SDS011;36103;54.176;12.070;2023-03-23T04:55:25;1.17;;;1.00;;
50213;SDS011;36103;54.176;12.070;2023-03-23T04:56:31;1.93;;;1.20;;
50213;SDS011;36103;54.176;12.070;2023-03-23T04:57:37;1.77;;;1.30;;
50213;SDS011;36103;54.176;12.070;2023-03-23T04:58:57;1.27;;;1.00;;
50213;SDS011;36103;54.176;12.070;2023-03-23T05:00:08;1.20;;;1.10;;
50213;SDS011;36103;54.176;12.070;2023-03-23T05:01:16;1.20;;;0.90;;
50213;SDS011;36103;54.176;12.070;2023-03-23T05:02:28;1.10;;;1.00;;
50213;SDS011;36103;54.176;12.070;2023-03-23T05:03:31;1.03;;;1.00;;
50213;SDS011;36103;54.176;12.070;2023-03-23T05:04:33;1.67;;;1.20;;
50213;SDS011;36103;54.176;12.070;2023-03-23T05:05:41;1.87;;;1.30;;
50213;SDS011;36103;54.176;12.070;2023-03-23T05:06:43;1.40;;;1.20;;
50213;SDS011;36103;54.176;12.070;2023-03-23T05:07:50;2.23;;;1.43;;
50213;SDS011;36103;54.176;12.070;2023-03-23T05:08:56;2.37;;;1.40;;
50213;SDS011;36103;54.176;12.070;2023-03-23T05:09:57;1.40;;;1.20;;
50213;SDS011;36103;54.176;12.070;2023-03-23T05:11:03;1.03;;;0.90;;
50213;SDS011;36103;54.176;12.070;2023-03-23T05:12:08;0.97;;;0.93;;
50213;SDS011;36103;54.176;12.070;2023-03-23T05:13:22;1.80;;;1.20;;
50213;SDS011;36103;54.176;12.070;2023-03-23T05:14:26;1.60;;;1.30;;
50213;SDS011;36103;54.176;12.070;2023-03-23T05:15:38;1.33;;;1.23;;
50213;SDS011;36103;54.176;12.070;2023-03-23T05:16:39;1.73;;;1.27;;
50213;SDS011;36103;54.176;12.070;2023-03-23T05:17:42;1.07;;;0.97;;
50213;SDS011;36103;54.176;12.070;2023-03-23T05:18:47;1.33;;;1.03;;
50213;SDS011;36103;54.176;12.070;2023-03-23T05:19:51;1.50;;;0.87;;
50213;SDS011;36103;54.176;12.070;2023-03-23T05:21:15;1.47;;;1.10;;
50213;SDS011;36103;54.176;12.070;2023-03-23T05:22:22;1.27;;;1.17;;
50213;SDS011;36103;54.176;12.070;2023-03-23T05:23:24;1.23;;;1.10;;
50213;SDS011;36103;54.176;12.070;2023-03-23T05:24:33;1.20;;;1.10;;
50213;SDS011;36103;54.176;12.070;2023-03-23T05:25:37;1.73;;;1.00;;
50213;SDS011;36103;54.176;12.070;2023-03-23T05:26:52;1.73;;;1.23;;
50213;SDS011;36103;54.176;12.070;2023-03-23T05:27:58;1.73;;;1.13;;
50213;SDS011;36103;54.176;12.070;2023-03-23T05:29:20;1.07;;;0.97;;
50213;SDS011;36103;54.176;12.070;2023-03-23T05:30:31;1.20;;;1.10;;
50213;SDS011;36103;54.176;12.070;2023-03-23T05:31:32;2.47;;;1.33;;
50213;SDS011;36103;54.176;12.070;2023-03-23T05:32:33;1.70;;;1.10;;
50213;SDS011;36103;54.176;12.070;2023-03-23T05:33:51;1.40;;;1.20;;
50213;SDS011;36103;54.176;12.070;2023-03-23T05:35:05;1.80;;;1.17;;
50213;SDS011;36103;54.176;12.070;2023-03-23T05:36:08;1.33;;;1.10;;
50213;SDS011;36103;54.176;12.070;2023-03-23T05:37:27;1.93;;;1.27;;
50213;SDS011;36103;54.176;12.070;2023-03-23T05:38:39;1.70;;;1.07;;
50213;SDS011;36103;54.176;12.070;2023-03-23T05:39:45;2.13;;;1.40;;
50213;SDS011;36103;54.176;12.070;2023-03-23T05:40:57;1.13;;;1.00;;
50213;SDS011;36103;54.176;12.070;2023-03-23T05:42:05;1.17;;;1.07;;
50213;SDS011;36103;54.176;12.070;2023-03-23T05:43:17;5.00;;;1.20;;
50213;SDS011;36103;54.176;12.070;2023-03-23T05:44:29;1.40;;;1.07;;
50213;SDS011;36103;54.176;12.070;2023-03-23T05:45:33;2.00;;;1.03;;
50213;SDS011;36103;54.176;12.070;2023-03-23T05:46:35;1.33;;;1.23;;
50213;SDS011;36103;54.176;12.070;2023-03-23T05:47:36;0.90;;;0.90;;
50213;SDS011;36103;54.176;12.070;2023-03-23T05:48:42;2.30;;;1.10;;
50213;SDS011;36103;54.176;12.070;2023-03-23T05:49:48;1.47;;;1.27;;
50213;SDS011;36103;54.176;12.070;2023-03-23T05:50:51;1.60;;;1.07;;
50213;SDS011;36103;54.176;12.070;2023-03-23T05:51:56;1.30;;;1.03;;
50213;SDS011;36103;54.176;12.070;2023-03-23T05:53:00;1.10;;;1.10;;
50213;SDS011;36103;54.176;12.070;2023-03-23T05:54:02;1.60;;;1.43;;
50213;SDS011;36103;54.176;12.070;2023-03-23T05:55:07;1.50;;;1.00;;
50213;SDS011;36103;54.176;12.070;2023-03-23T05:56:11;1.20;;;1.00;;
50213;SDS011;36103;54.176;12.070;2023-03-23T05:57:35;1.13;;;1.03;;
50213;SDS011;36103;54.176;12.070;2023-03-23T05:58:40;1.47;;;1.00;;
50213;SDS011;36103;54.176;12.070;2023-03-23T05:59:41;0.90;;;0.87;;
50213;SDS011;36103;54.176;12.070;2023-03-23T06:00:48;2.40;;;1.13;;
50213;SDS011;36103;54.176;12.070;2023-03-23T06:01:58;1.70;;;1.00;;
50213;SDS011;36103;54.176;12.070;2023-03-23T06:02:59;2.23;;;1.00;;
50213;SDS011;36103;54.176;12.070;2023-03-23T06:04:11;1.63;;;1.10;;
50213;SDS011;36103;54.176;12.070;2023-03-23T06:05:25;1.00;;;0.90;;
50213;SDS011;36103;54.176;12.070;2023-03-23T06:06:28;1.43;;;1.13;;
50213;SDS011;36103;54.176;12.070;2023-03-23T06:07:38;1.30;;;1.10;;
50213;SDS011;36103;54.176;12.070;2023-03-23T06:08:40;1.00;;;1.00;;
50213;SDS011;36103;54.176;12.070;2023-03-23T06:09:41;1.20;;;1.10;;
50213;SDS011;36103;54.176;12.070;2023-03-23T06:11:01;2.17;;;0.97;;
50213;SDS011;36103;54.176;12.070;2023-03-23T06:12:04;1.30;;;1.10;;
50213;SDS011;36103;54.176;12.070;2023-03-23T06:13:20;1.67;;;1.00;;
50213;SDS011;36103;54.176;12.070;2023-03-23T06:14:23;1.30;;;0.90;;
50213;SDS011;36103;54.176;12.070;2023-03-23T06:15:24;1.17;;;0.90;;
50213;SDS011;36103;54.176;12.070;2023-03-23T06:16:51;1.13;;;1.03;;
50213;SDS011;36103;54.176;12.070;2023-03-23T06:17:52;1.70;;;1.03;;
50213;SDS011;36103;54.176;12.070;2023-03-23T06:19:00;0.70;;;0.70;;
50213;SDS011;36103;54.176;12.070;2023-03-23T06:20:08;1.00;;;0.90;;
50213;SDS011;36103;54.176;12.070;2023-03-23T06:21:12;1.03;;;0.93;;
50213;SDS011;36103;54.176;12.070;2023-03-23T06:22:24;1.03;;;1.00;;
50213;SDS011;36103;54.176;12.070;2023-03-23T06:23:49;0.80;;;0.70;;
50213;SDS011;36103;54.176;12.070;2023-03-23T06:24:52;2.23;;;0.83;;
50213;SDS011;36103;54.176;12.070;2023-03-23T06:26:01;1.13;;;0.97;;
50213;SDS011;36103;54.176;12.070;2023-03-23T06:27:04;1.47;;;0.93;;
50213;SDS011;36103;54.176;12.070;2023-03-23T06:28:05;1.63;;;1.00;;
50213;SDS011;36103;54.176;12.070;2023-03-23T06:29:10;1.63;;;1.10;;
50213;SDS011;36103;54.176;12.070;2023-03-23T06:30:13;2.43;;;0.97;;
50213;SDS011;36103;54.176;12.070;2023-03-23T06:31:16;1.60;;;1.20;;